createdAt,value
2023-01-19T00:00:08.165Z,74.3
2023-01-19T00:05:45.172Z,74.2
2023-01-19T00:11:21.981Z,74
2023-01-19T00:16:58.244Z,74.1
2023-01-19T00:22:33.644Z,74.2
2023-01-19T00:28:09.142Z,74.2
2023-01-19T00:33:44.260Z,74.1
2023-01-19T00:39:20.200Z,73.9
2023-01-19T00:44:56.619Z,73.7
2023-01-19T00:50:31.363Z,73.8
2023-01-19T00:56:07.607Z,73.5
2023-01-19T01:01:46.662Z,73.3
2023-01-19T01:07:23.413Z,73.3
2023-01-19T01:12:59.661Z,73.6
2023-01-19T01:19:04.497Z,73.6
2023-01-19T01:24:39.661Z,73.5
2023-01-19T01:30:14.934Z,73.6
2023-01-19T01:35:50.281Z,73.7
2023-01-19T01:41:27.076Z,73.6
2023-01-19T01:47:03.215Z,73.8
2023-01-19T01:52:38.516Z,73.8
2023-01-19T01:58:13.493Z,73.9
2023-01-19T02:03:49.178Z,73.8
2023-01-19T02:09:24.054Z,73.9
2023-01-19T02:15:00.405Z,73.9
2023-01-19T02:20:36.641Z,74.1
2023-01-19T02:26:12.245Z,74.2
2023-01-19T02:31:47.518Z,74.2
2023-01-19T02:37:22.699Z,74.3
2023-01-19T02:42:58.913Z,74.5
2023-01-19T02:48:37.218Z,74.4
2023-01-19T02:54:12.802Z,74.3
2023-01-19T02:59:48.432Z,74.3
2023-01-19T03:05:23.649Z,74.4
2023-01-19T03:10:58.597Z,74.3
2023-01-19T03:16:35.286Z,74.5
2023-01-19T03:22:10.719Z,74.2
2023-01-19T03:27:47.462Z,74.6
2023-01-19T03:33:22.855Z,74.6
2023-01-19T03:38:58.994Z,74.8
2023-01-19T03:44:39.387Z,75.1
2023-01-19T03:50:16.058Z,75
2023-01-19T03:55:54.695Z,75
2023-01-19T04:01:30.522Z,74.9
2023-01-19T04:07:07.381Z,75
2023-01-19T04:12:42.802Z,75
2023-01-19T04:18:18.854Z,74.8
2023-01-19T04:23:54.070Z,74.8
2023-01-19T04:29:29.158Z,74.9
2023-01-19T04:35:04.139Z,74.9
2023-01-19T04:40:39.452Z,74.7
2023-01-19T04:46:14.428Z,74.7
2023-01-19T04:51:55.999Z,74.8
2023-01-19T04:57:31.404Z,74.9
2023-01-19T05:03:07.029Z,75.1
2023-01-19T05:08:45.831Z,75.2
2023-01-19T05:14:23.066Z,74.9
2023-01-19T05:19:58.930Z,74.9
2023-01-19T05:25:34.411Z,74.6
2023-01-19T05:31:10.129Z,74.6
2023-01-19T05:36:47.227Z,74.5
2023-01-19T05:42:22.336Z,74.4
2023-01-19T05:47:57.410Z,74.5
2023-01-19T05:53:32.620Z,74.8
2023-01-19T05:59:17.958Z,75.2
2023-01-19T06:04:53.270Z,75.2
2023-01-19T06:10:28.811Z,75.4
2023-01-19T06:16:05.730Z,75.2
2023-01-19T06:21:41.685Z,74.9
2023-01-19T06:27:18.022Z,74.8
2023-01-19T06:32:53.024Z,74.9
2023-01-19T06:38:29.005Z,75
2023-01-19T06:44:04.176Z,75.1
2023-01-19T06:50:01.950Z,75.1
2023-01-19T06:55:36.510Z,75.4
2023-01-19T07:01:12.965Z,75.1
2023-01-19T07:06:51.033Z,75.1
2023-01-19T07:12:26.484Z,75.4
2023-01-19T07:18:01.846Z,75.2
2023-01-19T07:23:38.930Z,75.2
2023-01-19T07:29:14.173Z,75.2
2023-01-19T07:34:49.279Z,75.2
2023-01-19T07:40:24.530Z,75.2
2023-01-19T07:46:01.239Z,75.2
2023-01-19T07:51:36.966Z,75.1
2023-01-19T07:57:12.179Z,76.1
2023-01-19T08:02:48.720Z,78.6
2023-01-19T08:08:23.495Z,79.1
2023-01-19T08:14:01.267Z,79.6
2023-01-19T08:19:38.589Z,80.2
2023-01-19T08:25:18.992Z,80.2
2023-01-19T08:30:54.926Z,80.3
2023-01-19T08:37:00.340Z,80.6
2023-01-19T08:42:36.116Z,80
2023-01-19T08:48:55.060Z,79.8
2023-01-19T08:54:28.774Z,80.7
2023-01-19T09:00:11.707Z,81.1
2023-01-19T09:05:55.171Z,81.7
2023-01-19T09:11:30.929Z,82.6
2023-01-19T09:17:08.480Z,82.4
2023-01-19T09:23:12.914Z,82.1
2023-01-19T09:28:48.646Z,81.9
2023-01-19T09:34:29.854Z,82
2023-01-19T09:40:17.156Z,80.5
2023-01-19T09:45:54.296Z,79.4
2023-01-19T09:51:29.571Z,79.4
2023-01-19T09:57:04.756Z,78.2
2023-01-19T10:02:40.627Z,78.2
2023-01-19T10:08:43.875Z,78
2023-01-19T10:14:19.169Z,77.1
2023-01-19T10:20:15.645Z,77.2
2023-01-19T10:25:55.265Z,76
2023-01-19T10:31:32.336Z,74.6
2023-01-19T10:37:09.789Z,75.7
2023-01-19T10:42:54.206Z,75.5
2023-01-19T10:48:30.142Z,76.2
2023-01-19T10:54:06.129Z,76.4
2023-01-19T10:59:45.267Z,76.9
2023-01-19T11:05:20.511Z,74.8
2023-01-19T11:10:57.067Z,75.5
2023-01-19T11:16:32.548Z,75
2023-01-19T11:22:07.932Z,74.1
2023-01-19T11:27:44.110Z,73.6
2023-01-19T11:33:19.364Z,74.1
2023-01-19T11:39:15.458Z,73.8
2023-01-19T11:44:52.002Z,75
2023-01-19T11:50:27.122Z,74.5
2023-01-19T11:56:02.715Z,73.8
2023-01-19T12:01:38.062Z,73.3
2023-01-19T12:07:13.979Z,71.7
2023-01-19T12:12:49.177Z,73.2
2023-01-19T12:18:26.282Z,71.7
2023-01-19T12:24:03.058Z,72.7
2023-01-19T12:29:43.574Z,72
2023-01-19T12:35:20.240Z,71.1
2023-01-19T12:41:01.138Z,71.4
2023-01-19T12:46:41.837Z,70.4
2023-01-19T12:52:17.337Z,72.7
2023-01-19T12:57:52.433Z,72.9
2023-01-19T13:03:28.243Z,72.6
2023-01-19T13:09:05.095Z,73
2023-01-19T13:14:41.307Z,73.2
2023-01-19T13:20:16.094Z,73.8
2023-01-19T13:25:51.874Z,73.8
2023-01-19T13:31:29.021Z,73.8
2023-01-19T13:37:06.193Z,72.3
2023-01-19T13:42:42.395Z,73.2
2023-01-19T13:48:25.413Z,72.4
2023-01-19T13:54:10.489Z,73.5
2023-01-19T13:59:51.286Z,76.2
2023-01-19T14:05:30.622Z,73.6
2023-01-19T14:11:18.600Z,76.1
2023-01-19T14:17:00.981Z,74.6
2023-01-19T14:22:36.100Z,76.3
2023-01-19T14:28:16.935Z,74.7
2023-01-19T14:33:52.728Z,75.4
2023-01-19T14:39:28.048Z,75.3
2023-01-19T14:45:02.866Z,76.2
2023-01-19T14:50:38.295Z,78.1
2023-01-19T14:56:15.922Z,79.5
2023-01-19T15:01:51.238Z,79.1
2023-01-19T15:07:54.922Z,80.4
2023-01-19T15:13:31.139Z,81.4
2023-01-19T15:19:08.139Z,82.2
2023-01-19T15:24:53.553Z,81.5
2023-01-19T15:30:36.390Z,82.1
2023-01-19T15:36:18.693Z,82.1
2023-01-19T15:41:59.512Z,80.9
2023-01-19T15:47:38.122Z,83.6
2023-01-19T15:53:23.149Z,79.2
2023-01-19T15:59:05.566Z,74.2
2023-01-19T16:04:44.069Z,78.7
2023-01-19T16:10:21.474Z,79.4
2023-01-19T16:15:56.666Z,78.9
2023-01-19T16:21:32.399Z,79.6
2023-01-19T16:27:11.896Z,78.3
2023-01-19T16:32:48.504Z,77.1
2023-01-19T16:38:34.198Z,78.6
2023-01-19T16:44:09.700Z,78.6
2023-01-19T16:49:44.868Z,78
2023-01-19T16:55:20.966Z,77.7
2023-01-19T17:00:57.723Z,77.6
2023-01-19T17:06:37.594Z,76.6
2023-01-19T17:12:13.467Z,75.7
2023-01-19T17:18:00.922Z,75.8
2023-01-19T17:23:36.401Z,74.9
2023-01-19T17:29:13.938Z,75.9
2023-01-19T17:34:51.653Z,75.9
2023-01-19T17:40:26.966Z,75.8
2023-01-19T17:46:02.057Z,77.1
2023-01-19T17:51:44.540Z,77.7
2023-01-19T17:57:21.172Z,78.2
2023-01-19T18:02:58.205Z,78
2023-01-19T18:08:35.494Z,77.6
2023-01-19T18:14:24.468Z,77.2
2023-01-19T18:20:00.789Z,77.1
2023-01-19T18:25:36.359Z,76.8
2023-01-19T18:31:14.651Z,76.9
2023-01-19T18:36:51.098Z,78.2
2023-01-19T18:42:27.057Z,78.7
2023-01-19T18:48:03.127Z,79.2
2023-01-19T18:53:42.151Z,79.5
2023-01-19T18:59:18.888Z,79.8
2023-01-19T19:04:54.932Z,79.7
2023-01-19T19:10:31.747Z,80.1
2023-01-19T19:16:06.939Z,80.4
2023-01-19T19:21:52.506Z,80.6
2023-01-19T19:27:27.359Z,80.7
2023-01-19T19:33:03.045Z,80.9
2023-01-19T19:38:41.447Z,81.3
2023-01-19T19:44:17.717Z,81.7
2023-01-19T19:49:53.653Z,82.1
2023-01-19T19:55:29.349Z,82.4
2023-01-19T20:01:05.163Z,82.9
2023-01-19T20:06:42.253Z,83.2
2023-01-19T20:12:17.817Z,83.2
2023-01-19T20:17:52.947Z,83.4
2023-01-19T20:23:28.214Z,83.8
2023-01-19T20:29:24.789Z,84.1
2023-01-19T20:35:02.780Z,84.7
2023-01-19T20:40:37.965Z,85.2
2023-01-19T20:46:18.240Z,85.7
2023-01-19T20:52:13.898Z,86.1
2023-01-19T20:57:56.310Z,86.1
2023-01-19T21:03:31.284Z,86.2
2023-01-19T21:09:27.415Z,86.2
2023-01-19T21:15:05.329Z,85.9
2023-01-19T21:20:40.233Z,85.6
2023-01-19T21:26:38.698Z,84.9
2023-01-19T21:32:35.125Z,84.2
2023-01-19T21:38:09.877Z,83.7
2023-01-19T21:43:52.192Z,83.5
2023-01-19T21:49:27.072Z,83.3
2023-01-19T21:55:02.528Z,83
2023-01-19T22:01:06.107Z,82.4
2023-01-19T22:06:54.609Z,82.1
2023-01-19T22:12:32.785Z,81.3
2023-01-19T22:18:23.044Z,81
2023-01-19T22:23:58.270Z,80.4
2023-01-19T22:29:34.512Z,79.8
2023-01-19T22:35:11.984Z,79.8
2023-01-19T22:40:50.572Z,79.4
2023-01-19T22:46:26.472Z,79.3
2023-01-19T22:52:02.974Z,78.8
2023-01-19T22:57:37.823Z,77.8
2023-01-19T23:03:13.271Z,78
2023-01-19T23:08:50.136Z,77.5
2023-01-19T23:14:50.578Z,77.1
2023-01-19T23:20:26.104Z,75.9
2023-01-19T23:26:00.998Z,75
2023-01-19T23:31:38.427Z,75.2
2023-01-19T23:37:18.969Z,75.3
2023-01-19T23:42:54.180Z,75.2
2023-01-19T23:48:29.862Z,75
2023-01-19T23:54:05.629Z,75.1
2023-01-19T23:59:40.739Z,74.6
